createdAt,value
2022-08-22T00:00:16.897Z,17.50
2022-08-22T00:02:30.143Z,17.50
2022-08-22T00:03:08.632Z,19.70
2022-08-22T00:04:42.066Z,17.50
2022-08-22T00:06:53.451Z,17.50
2022-08-22T00:09:12.578Z,17.60
2022-08-22T00:11:25.652Z,17.70
2022-08-22T00:13:35.302Z,17.70
2022-08-22T00:15:42.860Z,17.80
2022-08-22T00:17:54.808Z,17.80
2022-08-22T00:20:08.746Z,17.80
2022-08-22T00:22:19.847Z,17.80
2022-08-22T00:24:30.739Z,17.80
2022-08-22T00:26:45.615Z,17.80
2022-08-22T00:28:53.479Z,17.80
2022-08-22T00:31:01.522Z,17.80
2022-08-22T00:33:15.024Z,17.80
2022-08-22T00:35:24.530Z,17.80
2022-08-22T00:37:32.747Z,17.80
2022-08-22T00:39:42.082Z,17.80
2022-08-22T00:42:28.998Z,17.80
2022-08-22T00:44:55.492Z,17.70
2022-08-22T00:47:17.321Z,17.60
2022-08-22T00:49:42.807Z,17.50
2022-08-22T00:52:21.825Z,17.40
2022-08-22T00:54:37.431Z,17.40
2022-08-22T00:57:00.292Z,17.40
2022-08-22T00:59:27.416Z,17.30
2022-08-22T01:01:34.608Z,17.30
2022-08-22T01:04:11.091Z,17.20
2022-08-22T01:06:24.924Z,17.20
2022-08-22T01:08:46.948Z,17.10
2022-08-22T01:11:06.533Z,17.10
2022-08-22T01:13:30.670Z,17.10
2022-08-22T01:15:36.848Z,17.10
2022-08-22T01:18:05.701Z,17.10
2022-08-22T01:20:41.995Z,17.00
2022-08-22T01:23:25.039Z,17.00
2022-08-22T01:25:59.426Z,17.00
2022-08-22T01:28:35.603Z,17.00
2022-08-22T01:31:07.327Z,17.00
2022-08-22T01:33:43.919Z,16.90
2022-08-22T01:36:13.861Z,16.90
2022-08-22T01:38:37.170Z,16.90
2022-08-22T01:41:31.113Z,16.80
2022-08-22T01:44:02.403Z,16.80
2022-08-22T01:46:28.731Z,16.70
2022-08-22T01:48:40.110Z,16.70
2022-08-22T01:50:46.620Z,16.60
2022-08-22T01:52:59.536Z,16.60
2022-08-22T01:55:07.610Z,16.60
2022-08-22T01:57:11.264Z,16.50
2022-08-22T01:59:25.387Z,16.40
2022-08-22T02:01:54.037Z,16.40
2022-08-22T02:04:03.945Z,16.30
2022-08-22T02:06:14.394Z,16.30
2022-08-22T02:08:28.199Z,16.20
2022-08-22T02:10:46.035Z,16.20
2022-08-22T02:13:03.004Z,16.20
2022-08-22T02:15:19.370Z,16.10
2022-08-22T02:17:27.297Z,16.10
2022-08-22T02:19:37.860Z,16.00
2022-08-22T02:21:46.938Z,16.00
2022-08-22T02:23:56.709Z,16.00
2022-08-22T02:26:08.590Z,16.00
2022-08-22T02:28:16.928Z,15.90
2022-08-22T02:30:22.606Z,16.00
2022-08-22T02:32:30.910Z,16.00
2022-08-22T02:34:40.604Z,16.00
2022-08-22T02:36:49.406Z,16.00
2022-08-22T02:39:06.057Z,16.10
2022-08-22T02:41:17.487Z,16.10
2022-08-22T02:43:25.000Z,16.10
2022-08-22T02:45:36.653Z,16.10
2022-08-22T02:47:50.068Z,16.00
2022-08-22T02:50:00.852Z,16.10
2022-08-22T02:52:12.477Z,16.10
2022-08-22T02:54:24.838Z,16.10
2022-08-22T02:56:34.699Z,16.00
2022-08-22T02:58:45.609Z,16.00
2022-08-22T03:00:52.441Z,16.00
2022-08-22T03:03:05.645Z,16.00
2022-08-22T03:05:23.183Z,16.00
2022-08-22T03:07:37.363Z,16.00
2022-08-22T03:09:47.597Z,16.00
2022-08-22T03:12:01.617Z,16.00
2022-08-22T03:14:08.817Z,16.00
2022-08-22T03:16:16.352Z,16.00
2022-08-22T03:18:26.750Z,16.00
2022-08-22T03:20:48.887Z,16.00
2022-08-22T03:22:57.220Z,15.90
2022-08-22T03:25:11.197Z,15.80
2022-08-22T03:27:31.434Z,15.80
2022-08-22T03:29:38.675Z,15.70
2022-08-22T03:32:07.503Z,15.60
2022-08-22T03:34:20.281Z,15.60
2022-08-22T03:36:28.214Z,15.50
2022-08-22T03:38:46.718Z,15.50
2022-08-22T03:41:23.550Z,15.50
2022-08-22T03:43:47.110Z,15.50
2022-08-22T03:46:19.426Z,15.50
2022-08-22T03:49:06.068Z,15.50
2022-08-22T03:51:32.425Z,15.50
2022-08-22T03:53:54.919Z,15.50
2022-08-22T03:56:30.484Z,15.50
2022-08-22T03:58:49.139Z,15.50
2022-08-22T04:01:14.349Z,15.50
2022-08-22T04:03:41.502Z,15.50
2022-08-22T04:06:27.207Z,15.50
2022-08-22T04:09:03.905Z,15.50
2022-08-22T04:11:22.333Z,15.50
2022-08-22T04:14:04.789Z,15.50
2022-08-22T04:16:49.297Z,15.50
2022-08-22T04:19:12.115Z,15.50
2022-08-22T04:21:36.853Z,15.50
2022-08-22T04:24:01.037Z,15.50
2022-08-22T04:26:12.159Z,15.40
2022-08-22T04:28:22.210Z,15.40
2022-08-22T04:30:31.426Z,15.30
2022-08-22T04:32:39.215Z,15.30
2022-08-22T04:34:48.195Z,15.30
2022-08-22T04:36:57.829Z,15.30
2022-08-22T04:39:04.568Z,15.30
2022-08-22T04:41:12.151Z,15.20
2022-08-22T04:43:21.068Z,15.10
2022-08-22T04:45:27.691Z,15.10
2022-08-22T04:47:37.548Z,15.10
2022-08-22T04:49:47.803Z,15.00
2022-08-22T04:51:58.069Z,15.00
2022-08-22T04:54:15.107Z,15.00
2022-08-22T04:56:26.035Z,15.00
2022-08-22T04:58:46.835Z,15.00
2022-08-22T05:00:57.823Z,15.00
2022-08-22T05:03:03.880Z,15.10
2022-08-22T05:05:13.453Z,15.10
2022-08-22T05:07:22.891Z,15.20
2022-08-22T05:09:30.557Z,15.20
2022-08-22T05:11:35.875Z,15.30
2022-08-22T05:13:43.967Z,15.30
2022-08-22T05:15:50.280Z,15.30
2022-08-22T05:17:57.193Z,15.30
2022-08-22T05:20:06.430Z,15.30
2022-08-22T05:22:15.465Z,15.30
2022-08-22T05:24:27.987Z,15.30
2022-08-22T05:26:37.829Z,15.40
2022-08-22T05:28:44.911Z,15.50
2022-08-22T05:30:49.270Z,15.50
2022-08-22T05:33:07.270Z,15.50
2022-08-22T05:35:11.487Z,15.60
2022-08-22T05:37:22.840Z,15.60
2022-08-22T05:39:29.930Z,15.70
2022-08-22T05:41:37.268Z,15.70
2022-08-22T05:43:44.604Z,15.80
2022-08-22T05:45:49.257Z,15.90
2022-08-22T05:47:56.909Z,15.90
2022-08-22T05:50:02.929Z,16.00
2022-08-22T05:52:22.531Z,16.10
2022-08-22T05:54:34.592Z,16.20
2022-08-22T05:56:41.604Z,16.30
2022-08-22T05:58:50.592Z,16.40
2022-08-22T06:01:00.753Z,16.50
2022-08-22T06:03:16.985Z,16.60
2022-08-22T06:05:38.918Z,16.70
2022-08-22T06:07:51.543Z,16.90
2022-08-22T06:10:19.172Z,17.10
2022-08-22T06:12:30.125Z,17.20
2022-08-22T06:14:41.229Z,17.30
2022-08-22T06:16:50.560Z,17.50
2022-08-22T06:18:54.431Z,17.50
2022-08-22T06:20:59.724Z,17.70
2022-08-22T06:23:03.656Z,17.80
2022-08-22T06:25:15.964Z,17.90
2022-08-22T06:27:27.148Z,18.10
2022-08-22T06:29:38.162Z,18.10
2022-08-22T06:31:46.445Z,18.10
2022-08-22T06:33:57.093Z,18.20
2022-08-22T06:36:23.676Z,18.20
2022-08-22T06:39:09.916Z,18.30
2022-08-22T06:41:14.790Z,18.50
2022-08-22T06:43:18.367Z,18.70
2022-08-22T06:45:26.607Z,18.70
2022-08-22T06:47:34.196Z,18.80
2022-08-22T06:49:40.050Z,18.90
2022-08-22T06:51:43.922Z,19.10
2022-08-22T06:53:50.206Z,19.30
2022-08-22T06:55:56.276Z,19.50
2022-08-22T06:58:04.086Z,19.70
2022-08-22T07:00:11.617Z,19.90
2022-08-22T07:02:24.097Z,20.20
2022-08-22T07:04:29.200Z,20.30
2022-08-22T07:06:35.890Z,20.50
2022-08-22T07:08:39.337Z,20.70
2022-08-22T07:10:43.378Z,21.00
2022-08-22T07:12:48.519Z,21.10
2022-08-22T07:14:55.054Z,21.30
2022-08-22T07:17:00.868Z,21.60
2022-08-22T07:19:03.741Z,21.60
2022-08-22T07:21:08.382Z,21.70
2022-08-22T07:23:24.508Z,21.70
2022-08-22T07:25:28.910Z,21.80
2022-08-22T07:27:56.168Z,21.90
2022-08-22T07:30:06.606Z,22.00
2022-08-22T07:32:17.951Z,22.00
2022-08-22T07:34:40.216Z,22.00
2022-08-22T07:36:49.028Z,21.90
2022-08-22T07:39:11.626Z,21.90
2022-08-22T07:41:19.928Z,22.00
2022-08-22T07:43:29.645Z,22.10
2022-08-22T07:45:41.478Z,22.20
2022-08-22T07:47:59.118Z,22.40
2022-08-22T07:50:07.108Z,22.60
2022-08-22T07:52:13.471Z,22.80
2022-08-22T07:54:26.542Z,23.10
2022-08-22T07:56:35.849Z,23.30
2022-08-22T07:58:41.964Z,23.50
2022-08-22T08:00:49.300Z,23.70
2022-08-22T08:02:56.329Z,23.80
2022-08-22T08:05:01.371Z,24.00
2022-08-22T08:07:08.418Z,24.00
2022-08-22T08:09:15.488Z,24.10
2022-08-22T08:11:20.282Z,24.20
2022-08-22T08:13:28.155Z,24.30
2022-08-22T08:15:34.247Z,24.40
2022-08-22T08:17:40.460Z,24.50
2022-08-22T08:19:45.688Z,24.50
2022-08-22T08:21:53.364Z,24.50
2022-08-22T08:23:56.845Z,24.50
2022-08-22T08:26:05.695Z,24.50
2022-08-22T08:28:25.983Z,24.60
2022-08-22T08:30:37.996Z,24.70
2022-08-22T08:32:43.886Z,24.80
2022-08-22T08:34:47.252Z,24.90
2022-08-22T08:36:53.456Z,24.90
2022-08-22T08:39:03.481Z,25.00
2022-08-22T08:41:46.716Z,25.10
2022-08-22T08:44:00.208Z,25.20
2022-08-22T08:46:39.143Z,25.30
2022-08-22T08:49:09.491Z,25.30
2022-08-22T08:51:29.244Z,25.40
2022-08-22T08:53:50.838Z,25.50
2022-08-22T08:56:00.007Z,25.60
2022-08-22T08:58:17.748Z,25.60
2022-08-22T09:00:30.317Z,25.60
2022-08-22T09:02:51.239Z,25.60
2022-08-22T09:05:37.787Z,25.70
2022-08-22T09:08:01.798Z,25.80
2022-08-22T09:10:23.057Z,25.90
2022-08-22T09:12:56.091Z,26.10
2022-08-22T09:15:26.316Z,26.20
2022-08-22T09:17:58.671Z,26.30
2022-08-22T09:20:24.490Z,26.50
2022-08-22T09:22:52.466Z,26.50
2022-08-22T09:25:17.569Z,26.60
2022-08-22T09:27:31.839Z,26.80
2022-08-22T09:29:54.691Z,26.90
2022-08-22T09:32:13.047Z,27.00
2022-08-22T09:34:25.455Z,27.00
2022-08-22T09:36:36.503Z,27.10
2022-08-22T09:38:51.476Z,27.20
2022-08-22T09:41:02.412Z,27.30
2022-08-22T09:43:11.075Z,27.30
2022-08-22T09:45:38.463Z,27.40
2022-08-22T09:47:49.040Z,27.40
2022-08-22T09:50:14.243Z,27.40
2022-08-22T09:52:50.592Z,27.50
2022-08-22T09:55:01.085Z,27.60
2022-08-22T09:57:22.516Z,27.70
2022-08-22T09:59:38.774Z,27.70
2022-08-22T10:01:48.819Z,27.70
2022-08-22T10:04:28.584Z,27.80
2022-08-22T10:06:40.553Z,27.90
2022-08-22T10:08:51.761Z,28.00
2022-08-22T10:11:08.375Z,28.10
2022-08-22T10:13:23.934Z,28.30
2022-08-22T10:15:36.245Z,28.40
2022-08-22T10:17:45.795Z,28.40
2022-08-22T10:19:52.790Z,28.40
2022-08-22T10:22:18.354Z,28.40
2022-08-22T10:24:36.065Z,28.40
2022-08-22T10:26:52.671Z,28.40
2022-08-22T10:29:01.952Z,28.50
2022-08-22T10:31:25.985Z,28.50
2022-08-22T10:33:35.400Z,28.60
2022-08-22T10:35:57.753Z,28.70
2022-08-22T10:38:10.756Z,28.70
2022-08-22T10:40:22.823Z,28.80
2022-08-22T10:42:30.143Z,28.80
2022-08-22T10:44:43.869Z,28.80
2022-08-22T10:46:53.283Z,28.70
2022-08-22T10:49:00.268Z,28.60
2022-08-22T10:51:20.832Z,28.60
2022-08-22T10:53:34.921Z,28.70
2022-08-22T10:55:41.799Z,28.90
2022-08-22T10:58:01.369Z,28.80
2022-08-22T11:00:13.675Z,28.70
2022-08-22T11:02:39.543Z,28.70
2022-08-22T11:05:17.355Z,28.80
2022-08-22T11:07:48.867Z,29.10
2022-08-22T11:10:02.000Z,29.50
2022-08-22T11:12:16.254Z,29.80
2022-08-22T11:14:37.477Z,30.10
2022-08-22T11:16:55.420Z,30.30
2022-08-22T11:19:16.019Z,30.20
2022-08-22T11:21:32.691Z,30.20
2022-08-22T11:23:42.638Z,30.30
2022-08-22T11:25:54.876Z,30.30
2022-08-22T11:28:16.953Z,30.40
2022-08-22T11:30:26.016Z,30.50
2022-08-22T11:32:37.501Z,30.70
2022-08-22T11:34:52.586Z,30.90
2022-08-22T11:37:01.151Z,31.00
2022-08-22T11:39:17.048Z,31.20
2022-08-22T11:41:26.641Z,31.30
2022-08-22T11:43:49.943Z,31.50
2022-08-22T11:45:58.001Z,31.60
2022-08-22T11:48:05.857Z,31.60
2022-08-22T11:50:16.994Z,31.60
2022-08-22T11:52:51.695Z,31.60
2022-08-22T11:55:18.639Z,31.80
2022-08-22T11:57:30.950Z,31.70
2022-08-22T11:59:56.195Z,31.70
2022-08-22T12:02:03.958Z,31.60
2022-08-22T12:04:13.202Z,31.10
2022-08-22T12:06:46.987Z,30.80
2022-08-22T12:09:23.602Z,30.80
2022-08-22T12:11:33.348Z,30.80
2022-08-22T12:13:50.491Z,30.80
2022-08-22T12:16:04.622Z,30.80
2022-08-22T12:18:38.688Z,31.00
2022-08-22T12:20:55.988Z,31.10
2022-08-22T12:23:22.600Z,31.10
2022-08-22T12:26:10.890Z,31.20
2022-08-22T12:28:25.184Z,31.20
2022-08-22T12:30:35.589Z,31.30
2022-08-22T12:33:07.077Z,31.40
2022-08-22T12:35:29.982Z,31.40
2022-08-22T12:37:53.144Z,31.20
2022-08-22T12:40:19.069Z,31.00
2022-08-22T12:42:54.137Z,30.70
2022-08-22T12:45:19.142Z,30.60
2022-08-22T12:47:35.613Z,30.60
2022-08-22T12:50:02.804Z,30.70
2022-08-22T12:52:25.724Z,30.90
2022-08-22T12:54:52.305Z,31.00
2022-08-22T12:57:04.344Z,31.00
2022-08-22T12:59:29.604Z,31.00
2022-08-22T13:01:40.207Z,31.10
2022-08-22T13:03:49.253Z,31.10
2022-08-22T13:05:56.856Z,31.10
2022-08-22T13:08:05.667Z,31.10
2022-08-22T13:10:31.919Z,31.20
2022-08-22T13:12:44.284Z,31.20
2022-08-22T13:14:52.005Z,31.20
2022-08-22T13:17:00.008Z,31.20
2022-08-22T13:19:17.983Z,31.30
2022-08-22T13:21:31.941Z,31.30
2022-08-22T13:23:42.900Z,31.30
2022-08-22T13:26:03.113Z,31.30
2022-08-22T13:28:13.101Z,31.30
2022-08-22T13:30:20.635Z,31.40
2022-08-22T13:32:28.442Z,31.40
2022-08-22T13:34:40.536Z,31.30
2022-08-22T13:36:52.268Z,31.20
2022-08-22T13:39:02.541Z,31.20
2022-08-22T13:41:08.616Z,31.20
2022-08-22T13:43:15.088Z,31.20
2022-08-22T13:45:23.366Z,31.20
2022-08-22T13:47:31.467Z,31.20
2022-08-22T13:49:39.284Z,31.30
2022-08-22T13:51:52.146Z,31.40
2022-08-22T13:54:02.736Z,31.40
2022-08-22T13:56:20.602Z,31.50
2022-08-22T13:58:32.029Z,31.60
2022-08-22T14:01:20.078Z,31.60
2022-08-22T14:03:37.233Z,31.70
2022-08-22T14:05:44.802Z,31.80
2022-08-22T14:07:58.294Z,31.80
2022-08-22T14:10:15.108Z,31.90
2022-08-22T14:12:21.884Z,31.80
2022-08-22T14:14:31.368Z,31.70
2022-08-22T14:16:37.267Z,31.60
2022-08-22T14:18:46.246Z,31.50
2022-08-22T14:20:49.995Z,31.30
2022-08-22T14:23:03.477Z,31.00
2022-08-22T14:25:10.249Z,30.80
2022-08-22T14:27:15.738Z,30.50
2022-08-22T14:29:22.111Z,30.20
2022-08-22T14:31:27.539Z,29.90
2022-08-22T14:33:35.991Z,29.80
2022-08-22T14:35:52.912Z,29.60
2022-08-22T14:38:17.610Z,29.50
2022-08-22T14:40:26.202Z,29.40
2022-08-22T14:42:39.432Z,29.30
2022-08-22T14:45:01.350Z,29.30
2022-08-22T14:47:30.367Z,29.50
2022-08-22T14:49:55.378Z,30.00
2022-08-22T14:52:07.579Z,30.70
2022-08-22T14:54:21.043Z,31.20
2022-08-22T14:56:28.724Z,31.80
2022-08-22T14:58:36.139Z,32.10
2022-08-22T15:00:44.047Z,32.40
2022-08-22T15:02:47.979Z,32.70
2022-08-22T15:04:54.842Z,33.00
2022-08-22T15:06:59.535Z,33.20
2022-08-22T15:09:07.787Z,33.40
2022-08-22T15:11:21.838Z,33.40
2022-08-22T15:13:26.127Z,33.50
2022-08-22T15:15:41.106Z,33.50
2022-08-22T15:17:52.891Z,33.70
2022-08-22T15:20:10.799Z,33.90
2022-08-22T15:22:21.325Z,34.10
2022-08-22T15:24:29.331Z,34.20
2022-08-22T15:26:36.851Z,34.20
2022-08-22T15:28:52.745Z,34.40
2022-08-22T15:31:05.608Z,34.30
2022-08-22T15:33:15.418Z,33.70
2022-08-22T15:35:30.071Z,33.10
2022-08-22T15:37:34.931Z,32.50
2022-08-22T15:39:58.004Z,32.10
2022-08-22T15:42:03.534Z,31.70
2022-08-22T15:44:14.898Z,31.40
2022-08-22T15:46:40.046Z,31.00
2022-08-22T15:48:44.389Z,30.70
2022-08-22T15:50:57.992Z,30.50
2022-08-22T15:53:18.027Z,30.30
2022-08-22T15:55:25.261Z,30.20
2022-08-22T15:57:32.551Z,30.10
2022-08-22T15:59:52.700Z,30.10
2022-08-22T16:02:01.105Z,30.00
2022-08-22T16:04:13.441Z,30.00
2022-08-22T16:06:44.920Z,30.00
2022-08-22T16:08:54.069Z,30.40
2022-08-22T16:11:20.421Z,31.10
2022-08-22T16:13:45.007Z,31.90
2022-08-22T16:16:02.772Z,32.70
2022-08-22T16:18:06.715Z,33.20
2022-08-22T16:20:43.188Z,33.70
2022-08-22T16:23:07.318Z,33.70
2022-08-22T16:25:11.000Z,33.50
2022-08-22T16:27:24.230Z,33.20
2022-08-22T16:29:41.216Z,33.10
2022-08-22T16:32:03.507Z,32.80
2022-08-22T16:34:26.553Z,32.50
2022-08-22T16:37:14.552Z,32.70
2022-08-22T16:39:39.809Z,33.30
2022-08-22T16:41:44.384Z,34.00
2022-08-22T16:44:28.346Z,34.30
2022-08-22T16:46:39.667Z,34.10
2022-08-22T16:48:42.592Z,33.50
2022-08-22T16:51:01.194Z,33.10
2022-08-22T16:53:08.453Z,32.70
2022-08-22T16:55:46.193Z,32.20
2022-08-22T16:58:06.079Z,31.60
2022-08-22T17:00:21.048Z,31.20
2022-08-22T17:02:49.088Z,30.80
2022-08-22T17:05:04.420Z,30.50
2022-08-22T17:07:23.136Z,30.20
2022-08-22T17:09:48.218Z,30.00
2022-08-22T17:11:59.272Z,29.90
2022-08-22T17:14:17.666Z,29.70
2022-08-22T17:16:35.688Z,29.60
2022-08-22T17:19:12.435Z,29.40
2022-08-22T17:21:26.005Z,29.20
2022-08-22T17:23:39.853Z,29.00
2022-08-22T17:25:56.030Z,28.90
2022-08-22T17:28:11.454Z,28.80
2022-08-22T17:30:17.488Z,28.60
2022-08-22T17:32:30.137Z,28.50
2022-08-22T17:34:43.895Z,28.40
2022-08-22T17:37:07.423Z,28.30
2022-08-22T17:39:25.547Z,28.10
2022-08-22T17:41:38.903Z,28.00
2022-08-22T17:43:54.955Z,27.80
2022-08-22T17:46:13.438Z,27.70
2022-08-22T17:48:21.483Z,27.50
2022-08-22T17:50:31.722Z,27.40
2022-08-22T17:52:42.657Z,27.20
2022-08-22T17:54:53.370Z,27.10
2022-08-22T17:57:05.835Z,26.90
2022-08-22T17:59:20.805Z,26.70
2022-08-22T18:01:43.286Z,26.50
2022-08-22T18:03:53.076Z,26.30
2022-08-22T18:06:05.349Z,26.10
2022-08-22T18:08:37.373Z,25.90
2022-08-22T18:10:48.304Z,25.80
2022-08-22T18:13:03.496Z,25.60
2022-08-22T18:15:19.878Z,25.50
2022-08-22T18:17:31.440Z,25.30
2022-08-22T18:19:42.951Z,25.10
2022-08-22T18:21:52.363Z,25.00
2022-08-22T18:23:59.251Z,24.90
2022-08-22T18:26:08.496Z,24.70
2022-08-22T18:28:26.172Z,24.60
2022-08-22T18:30:33.451Z,24.60
2022-08-22T18:32:43.840Z,24.40
2022-08-22T18:34:53.248Z,24.30
2022-08-22T18:37:05.031Z,24.20
2022-08-22T18:39:15.330Z,24.10
2022-08-22T18:41:28.788Z,24.00
2022-08-22T18:43:39.070Z,23.90
2022-08-22T18:46:04.232Z,23.80
2022-08-22T18:48:08.489Z,23.80
2022-08-22T18:50:28.899Z,23.80
2022-08-22T18:52:38.868Z,23.80
2022-08-22T18:55:10.626Z,23.80
2022-08-22T18:57:38.702Z,23.70
2022-08-22T18:59:59.090Z,23.70
2022-08-22T19:02:16.124Z,23.60
2022-08-22T19:04:51.973Z,23.60
2022-08-22T19:07:16.574Z,23.50
2022-08-22T19:09:38.529Z,23.50
2022-08-22T19:11:52.742Z,23.50
2022-08-22T19:14:14.068Z,23.50
2022-08-22T19:16:49.181Z,23.50
2022-08-22T19:18:55.433Z,23.50
2022-08-22T19:21:45.359Z,23.50
2022-08-22T19:23:51.156Z,23.50
2022-08-22T19:26:32.825Z,23.50
2022-08-22T19:28:38.773Z,23.40
2022-08-22T19:30:46.234Z,23.40
2022-08-22T19:33:13.738Z,23.40
2022-08-22T19:35:21.985Z,23.30
2022-08-22T19:37:33.722Z,23.30
2022-08-22T19:40:05.315Z,23.30
2022-08-22T19:42:15.385Z,23.30
2022-08-22T19:44:42.116Z,23.20
2022-08-22T19:46:47.268Z,23.20
2022-08-22T19:48:52.758Z,23.20
2022-08-22T19:51:11.566Z,23.10
2022-08-22T19:53:37.359Z,23.10
2022-08-22T19:56:05.016Z,23.10
2022-08-22T19:58:17.060Z,23.00
2022-08-22T20:00:53.456Z,23.00
2022-08-22T20:03:02.648Z,23.00
2022-08-22T20:05:20.242Z,23.00
2022-08-22T20:07:33.923Z,23.00
2022-08-22T20:09:47.356Z,23.00
2022-08-22T20:12:01.165Z,23.00
2022-08-22T20:14:30.280Z,22.90
2022-08-22T20:17:34.908Z,23.00
2022-08-22T20:19:42.476Z,23.00
2022-08-22T20:21:59.011Z,23.10
2022-08-22T20:24:04.532Z,23.10
2022-08-22T20:26:08.895Z,23.10
2022-08-22T20:28:29.553Z,23.00
2022-08-22T20:30:38.531Z,23.00
2022-08-22T20:32:46.132Z,22.90
2022-08-22T20:34:54.958Z,22.90
2022-08-22T20:37:23.715Z,22.90
2022-08-22T20:39:26.241Z,22.80
2022-08-22T20:41:36.596Z,22.80
2022-08-22T20:43:44.805Z,22.80
2022-08-22T20:45:59.396Z,22.80
2022-08-22T20:48:09.660Z,22.80
2022-08-22T20:50:13.082Z,22.80
2022-08-22T20:52:24.819Z,22.80
2022-08-22T20:54:29.973Z,22.80
2022-08-22T20:56:39.031Z,22.70
2022-08-22T20:59:00.909Z,22.70
2022-08-22T21:01:05.919Z,22.70
2022-08-22T21:03:14.139Z,22.60
2022-08-22T21:05:22.445Z,22.60
2022-08-22T21:07:29.313Z,22.70
2022-08-22T21:09:50.265Z,22.70
2022-08-22T21:11:53.203Z,22.70
2022-08-22T21:13:56.248Z,22.60
2022-08-22T21:16:11.724Z,22.60
2022-08-22T21:18:26.549Z,22.60
2022-08-22T21:20:34.471Z,22.60
2022-08-22T21:22:41.197Z,22.60
2022-08-22T21:24:45.670Z,22.60
2022-08-22T21:26:57.382Z,22.60
2022-08-22T21:29:04.933Z,22.60
2022-08-22T21:31:12.379Z,22.50
2022-08-22T21:33:24.041Z,22.50
2022-08-22T21:35:31.063Z,22.50
2022-08-22T21:37:39.566Z,22.40
2022-08-22T21:39:45.503Z,22.40
2022-08-22T21:41:51.507Z,22.30
2022-08-22T21:43:54.431Z,22.30
2022-08-22T21:45:57.319Z,22.30
2022-08-22T21:48:01.468Z,22.20
2022-08-22T21:50:27.804Z,22.20
2022-08-22T21:52:32.713Z,22.20
2022-08-22T21:54:40.529Z,22.10
2022-08-22T21:56:43.337Z,22.10
2022-08-22T21:58:47.071Z,22.10
2022-08-22T22:00:53.152Z,22.10
2022-08-22T22:03:00.674Z,22.10
2022-08-22T22:05:10.306Z,22.10
2022-08-22T22:07:15.775Z,22.10
2022-08-22T22:09:18.631Z,22.00
2022-08-22T22:11:21.711Z,22.00
2022-08-22T22:13:28.385Z,21.90
2022-08-22T22:15:37.944Z,21.90
2022-08-22T22:17:40.854Z,21.90
2022-08-22T22:19:43.878Z,21.80
2022-08-22T22:21:46.733Z,21.80
2022-08-22T22:23:52.427Z,21.70
2022-08-22T22:25:57.255Z,21.70
2022-08-22T22:28:01.056Z,21.70
2022-08-22T22:30:06.487Z,21.70
2022-08-22T22:32:10.363Z,21.70
2022-08-22T22:34:13.354Z,21.60
2022-08-22T22:36:21.283Z,21.60
2022-08-22T22:38:26.037Z,21.50
2022-08-22T22:40:30.720Z,21.50
2022-08-22T22:42:33.626Z,21.50
2022-08-22T22:44:36.529Z,21.40
2022-08-22T22:46:39.695Z,21.40
2022-08-22T22:48:42.512Z,21.40
2022-08-22T22:50:45.344Z,21.30
2022-08-22T22:52:48.142Z,21.30
2022-08-22T22:54:51.990Z,21.30
2022-08-22T22:56:56.588Z,21.20
2022-08-22T22:59:13.156Z,21.20
2022-08-22T23:01:19.619Z,21.20
2022-08-22T23:03:22.524Z,21.20
2022-08-22T23:05:25.394Z,21.20
2022-08-22T23:07:28.853Z,21.20
2022-08-22T23:09:38.329Z,21.10
2022-08-22T23:11:47.315Z,21.20
2022-08-22T23:13:51.876Z,21.10
2022-08-22T23:15:54.744Z,21.20
2022-08-22T23:17:57.592Z,21.10
2022-08-22T23:20:01.354Z,21.10
2022-08-22T23:22:04.215Z,21.20
2022-08-22T23:24:08.734Z,21.10
2022-08-22T23:26:12.592Z,21.10
2022-08-22T23:28:15.563Z,21.20
2022-08-22T23:30:19.892Z,21.20
2022-08-22T23:32:22.713Z,21.20
2022-08-22T23:34:31.862Z,21.20
2022-08-22T23:36:35.316Z,21.20
2022-08-22T23:38:38.262Z,21.20
2022-08-22T23:40:41.077Z,21.20
2022-08-22T23:42:44.077Z,21.10
2022-08-22T23:44:47.413Z,21.10
2022-08-22T23:46:52.434Z,21.10
2022-08-22T23:48:55.691Z,21.10
2022-08-22T23:50:58.687Z,21.10
2022-08-22T23:53:01.554Z,21.10
2022-08-22T23:55:05.268Z,21.00
2022-08-22T23:57:12.117Z,21.00
2022-08-22T23:59:19.764Z,21.00
